Time;durP1;ratioP1;P1;durP2;ratioP2;P2;SDS_P1;SDS_P2;PMS_P1;PMS_P2;Temp;Humidity;BMP_temperature;BMP_pressure;BME280_temperature;BME280_humidity;BME280_pressure;Samples;Min_cycle;Max_cycle;Signal;HPM_P1;HPM_P2
2023/09/28 00:00:35;;;;;;;5.85;5.32;;;;;;;15.43;nan;99633.56;4992949;28;20219;-83
2023/09/28 00:03:01;;;;;;;8.85;5.20;;;;;;;15.47;nan;99625.25;4992842;28;20219;-84
2023/09/28 00:05:27;;;;;;;7.27;5.20;;;;;;;15.48;nan;99626.09;4990995;28;20224;-83
2023/09/28 00:07:55;;;;;;;5.13;4.63;;;;;;;15.42;nan;99613.38;4991012;28;20312;-83
2023/09/28 00:10:20;;;;;;;7.30;5.35;;;;;;;15.33;nan;99614.94;4991266;28;20219;-83
2023/09/28 00:12:48;;;;;;;8.03;5.23;;;;;;;15.27;nan;99621.59;4986631;28;20196;-83
2023/09/28 00:15:14;;;;;;;7.15;6.45;;;;;;;15.27;nan;99621.59;4981953;28;20191;-83
2023/09/28 00:17:40;;;;;;;5.20;4.60;;;;;;;15.26;nan;99625.22;4987012;28;20279;-83
2023/09/28 00:20:13;;;;;;;10.30;5.57;;;;;;;15.26;nan;99629.69;4991348;28;20492;-83
2023/09/28 00:22:42;;;;;;;5.63;5.05;;;;;;;15.24;nan;99629.78;4988851;28;20471;-83
2023/09/28 00:25:12;;;;;;;5.38;4.88;;;;;;;15.26;nan;99627.88;4989020;28;20330;-83
2023/09/28 00:27:39;;;;;;;5.43;4.93;;;;;;;15.26;nan;99622.56;4987832;28;20243;-83
2023/09/28 00:30:08;;;;;;;6.40;4.93;;;;;;;15.29;nan;99625.94;4988875;28;20204;-82
2023/09/28 00:32:33;;;;;;;4.72;4.20;;;;;;;15.32;nan;99636.28;4990299;28;20634;-83
2023/09/28 00:34:59;;;;;;;5.53;4.97;;;;;;;15.34;nan;99629.03;4991007;28;20221;-83
2023/09/28 00:37:24;;;;;;;6.50;4.90;;;;;;;15.36;nan;99619.16;4987702;28;20211;-83
2023/09/28 00:39:50;;;;;;;7.37;5.60;;;;;;;15.35;nan;99617.47;4988375;28;20204;-83
2023/09/28 00:42:16;;;;;;;7.43;4.90;;;;;;;15.33;nan;99622.88;4990901;28;20672;-83
2023/09/28 00:44:42;;;;;;;5.15;4.35;;;;;;;15.34;nan;99619.28;4989572;28;20206;-83
2023/09/28 00:47:08;;;;;;;8.40;5.10;;;;;;;15.35;nan;99617.47;4989735;28;20291;-83
2023/09/28 00:49:36;;;;;;;5.43;4.93;;;;;;;15.34;nan;99614.00;4986541;28;20243;-83
2023/09/28 00:52:02;;;;;;;8.35;5.00;;;;;;;15.28;nan;99617.13;4988057;28;20224;-83
2023/09/28 00:54:29;;;;;;;6.60;5.03;;;;;;;15.24;nan;99621.84;4996906;28;20220;-83
2023/09/28 00:56:55;;;;;;;5.05;4.47;;;;;;;15.24;nan;99618.38;4989371;28;20271;-82
2023/09/28 00:59:21;;;;;;;5.68;5.13;;;;;;;15.24;nan;99624.50;4985722;28;20226;-83
2023/09/28 01:01:47;;;;;;;6.43;5.23;;;;;;;15.25;nan;99620.03;4986648;28;20221;-83
2023/09/28 01:04:13;;;;;;;8.98;5.28;;;;;;;15.25;nan;99612.94;4992008;28;20574;-83
2023/09/28 01:06:39;;;;;;;5.37;4.87;;;;;;;15.27;nan;99612.81;4988262;28;20564;-83
2023/09/28 01:09:09;;;;;;;10.38;4.70;;;;;;;15.28;nan;99614.50;4999545;28;20435;-83
2023/09/28 01:11:36;;;;;;;7.05;5.20;;;;;;;15.27;nan;99607.53;4988066;28;20583;-83
2023/09/28 01:14:02;;;;;;;5.65;4.15;;;;;;;15.23;nan;99600.84;4991071;28;20220;-82
2023/09/28 01:16:27;;;;;;;6.65;5.20;;;;;;;15.22;nan;99613.19;4994177;28;20249;-83
2023/09/28 01:18:53;;;;;;;7.27;5.57;;;;;;;15.22;nan;99628.25;4987454;28;20263;-83
2023/09/28 01:21:19;;;;;;;4.57;3.87;;;;;;;15.23;nan;99625.47;4988177;28;20228;-83
2023/09/28 01:23:45;;;;;;;6.50;4.57;;;;;;;15.25;nan;99630.63;4989120;28;20211;-83
2023/09/28 01:26:11;;;;;;;5.97;5.10;;;;;;;15.26;nan;99625.22;4989320;28;20192;-83
2023/09/28 01:28:36;;;;;;;5.03;4.10;;;;;;;15.30;nan;99630.25;4988364;28;20208;-82
2023/09/28 01:31:01;;;;;;;5.30;4.30;;;;;;;15.31;nan;99631.91;4988726;28;20204;-82
2023/09/28 01:33:27;;;;;;;4.60;4.20;;;;;;;15.31;nan;99638.09;4986184;28;20257;-83
2023/09/28 01:35:53;;;;;;;7.40;4.85;;;;;;;15.30;nan;99622.31;4989794;28;20462;-83
2023/09/28 01:38:39;;;;;;;6.87;4.77;;;;;;;15.23;nan;99622.00;4988405;28;20472;-83
2023/09/28 01:41:05;;;;;;;6.00;4.60;;;;;;;15.18;nan;99618.88;4990926;28;20471;-83
2023/09/28 01:43:30;;;;;;;6.30;5.40;;;;;;;15.15;nan;99614.69;4990854;28;20198;-83
2023/09/28 01:45:56;;;;;;;4.47;4.03;;;;;;;15.13;nan;99621.06;4992067;28;20552;-84
2023/09/28 01:48:21;;;;;;;5.20;4.30;;;;;;;15.16;nan;99632.22;4991977;28;20223;-83
2023/09/28 01:50:48;;;;;;;5.87;5.00;;;;;;;15.20;nan;99628.38;4990653;28;20538;-83
2023/09/28 01:53:13;;;;;;;7.05;4.50;;;;;;;15.22;nan;99631.72;4987507;28;20188;-83
2023/09/28 01:55:39;;;;;;;6.10;4.50;;;;;;;15.23;nan;99632.59;4989432;28;20567;-83
2023/09/28 01:58:07;;;;;;;8.30;5.17;;;;;;;15.20;nan;99623.09;4992808;28;20669;-83
2023/09/28 02:00:36;;;;;;;7.35;4.63;;;;;;;15.21;nan;99624.75;5000149;28;20501;-83
2023/09/28 02:03:04;;;;;;;7.28;3.95;;;;;;;15.21;nan;99632.69;4992634;28;20214;-83
2023/09/28 02:05:32;;;;;;;7.47;4.65;;;;;;;15.23;nan;99633.41;4992202;28;20199;-83
2023/09/28 02:07:59;;;;;;;5.22;4.45;;;;;;;15.28;nan;99630.38;4991718;28;20215;-83
2023/09/28 02:10:24;;;;;;;6.05;4.03;;;;;;;15.32;nan;99631.81;4998174;28;20238;-84
2023/09/28 02:12:50;;;;;;;5.00;4.00;;;;;;;15.37;nan;99634.09;4992961;28;20611;-83
2023/09/28 02:15:16;;;;;;;6.85;4.90;;;;;;;15.39;nan;99621.53;4991589;28;20283;-83
2023/09/28 02:17:44;;;;;;;6.95;4.75;;;;;;;15.35;nan;99609.53;4987532;28;20223;-83
2023/09/28 02:20:10;;;;;;;4.38;3.97;;;;;;;15.30;nan;99617.03;4990659;28;20220;-83
2023/09/28 02:22:43;;;;;;;4.15;3.75;;;;;;;15.27;nan;99613.66;4989971;28;20576;-84
2023/09/28 02:25:23;;;;;;;6.38;5.13;;;;;;;15.31;nan;99601.03;4989516;28;20258;-84
2023/09/28 02:27:49;;;;;;;5.13;4.15;;;;;;;15.29;nan;99599.47;5001111;28;20258;-84
2023/09/28 02:30:19;;;;;;;6.43;4.72;;;;;;;15.23;nan;99606.13;4988083;28;20204;-83
2023/09/28 02:32:47;;;;;;;5.95;4.68;;;;;;;15.22;nan;99625.59;4987238;28;20283;-82
2023/09/28 02:35:14;;;;;;;6.05;4.88;;;;;;;15.22;nan;99612.34;5002904;28;20208;-84
2023/09/28 02:37:41;;;;;;;4.70;4.30;;;;;;;15.15;nan;99612.03;4987125;28;20763;-83
2023/09/28 02:40:09;;;;;;;8.52;4.82;;;;;;;15.17;nan;99618.03;4997446;28;20242;-83
2023/09/28 02:42:34;;;;;;;12.05;4.22;;;;;;;15.21;nan;99616.81;4986187;28;20204;-83
2023/09/28 02:45:00;;;;;;;8.07;4.20;;;;;;;15.20;nan;99624.88;4989548;28;20215;-83
2023/09/28 02:47:26;;;;;;;5.00;4.20;;;;;;;15.20;nan;99632.81;4988116;28;20204;-83
2023/09/28 02:49:52;;;;;;;4.63;4.13;;;;;;;15.22;nan;99644.94;4984523;28;20219;-84
2023/09/28 02:52:18;;;;;;;6.88;4.40;;;;;;;15.24;nan;99645.66;4988792;28;20584;-83
2023/09/28 02:54:44;;;;;;;3.57;3.27;;;;;;;15.25;nan;99635.91;4991614;28;20199;-83
2023/09/28 02:57:10;;;;;;;7.80;4.30;;;;;;;15.23;nan;99635.22;4989421;28;20208;-83
2023/09/28 02:59:36;;;;;;;10.30;4.60;;;;;;;15.18;nan;99635.59;4988675;28;20196;-83
2023/09/28 03:02:03;;;;;;;6.90;4.07;;;;;;;15.11;nan;99639.69;4989490;28;20266;-82
2023/09/28 03:04:33;;;;;;;7.30;4.80;;;;;;;15.07;nan;99637.44;4986982;28;20199;-83
2023/09/28 03:06:58;;;;;;;6.55;5.18;;;;;;;15.04;nan;99634.09;4987434;28;20603;-83
2023/09/28 03:09:26;;;;;;;5.15;4.30;;;;;;;15.06;nan;99641.88;4990541;28;20192;-83
2023/09/28 03:11:53;;;;;;;4.93;4.32;;;;;;;15.10;nan;99643.31;4992589;28;20444;-84
2023/09/28 03:14:20;;;;;;;5.00;4.03;;;;;;;15.15;nan;99641.16;4987511;28;20205;-84
2023/09/28 03:16:45;;;;;;;6.75;4.82;;;;;;;15.16;nan;99631.41;4997332;28;20216;-84
2023/09/28 03:19:11;;;;;;;5.13;4.60;;;;;;;15.18;nan;99625.00;4997750;28;20200;-83
2023/09/28 03:21:39;;;;;;;4.93;4.00;;;;;;;15.22;nan;99625.59;4988613;28;20208;-84
2023/09/28 03:24:05;;;;;;;6.55;4.57;;;;;;;15.24;nan;99624.50;4996891;28;20452;-83
2023/09/28 03:26:31;;;;;;;5.38;4.82;;;;;;;15.23;nan;99614.91;4989299;28;20196;-84
2023/09/28 03:28:57;;;;;;;7.47;4.80;;;;;;;15.18;nan;99611.78;4989175;28;20199;-84
2023/09/28 03:31:27;;;;;;;5.25;3.75;;;;;;;15.16;nan;99616.34;4990678;28;20215;-84
2023/09/28 03:33:53;;;;;;;6.40;4.15;;;;;;;15.14;nan;99615.63;4994094;28;20259;-83
2023/09/28 03:36:19;;;;;;;9.23;4.07;;;;;;;15.15;nan;99614.69;4981426;28;20680;-83
2023/09/28 03:38:44;;;;;;;5.87;5.27;;;;;;;15.17;nan;99615.38;4988889;28;20211;-84
2023/09/28 03:41:10;;;;;;;6.00;4.70;;;;;;;15.19;nan;99621.38;4988946;28;20212;-83
2023/09/28 03:43:35;;;;;;;5.83;4.30;;;;;;;15.19;nan;99631.97;4987782;28;20204;-84
2023/09/28 03:46:01;;;;;;;4.83;4.17;;;;;;;15.18;nan;99637.41;4988485;28;20219;-84
2023/09/28 03:48:27;;;;;;;5.83;4.00;;;;;;;15.14;nan;99628.03;4987797;28;20860;-83
2023/09/28 03:50:52;;;;;;;5.03;4.10;;;;;;;15.09;nan;99625.75;4987738;28;20484;-83
2023/09/28 03:53:17;;;;;;;5.80;4.60;;;;;;;15.08;nan;99637.31;4988995;28;20294;-83
2023/09/28 03:55:46;;;;;;;4.23;3.80;;;;;;;15.08;nan;99633.84;4987126;28;20210;-83
2023/09/28 03:58:12;;;;;;;6.40;4.88;;;;;;;15.04;nan;99639.38;4988418;28;20208;-83
2023/09/28 04:00:37;;;;;;;6.30;4.50;;;;;;;14.98;nan;99633.72;4985632;28;20266;-84
2023/09/28 04:03:03;;;;;;;8.27;4.77;;;;;;;14.95;nan;99628.69;4987747;28;20204;-84
2023/09/28 04:05:28;;;;;;;4.90;4.07;;;;;;;14.91;nan;99624.63;4985068;28;20747;-83
2023/09/28 04:07:54;;;;;;;7.70;5.30;;;;;;;14.85;nan;99620.66;4977496;28;20200;-81
2023/09/28 04:10:20;;;;;;;7.17;5.33;;;;;;;14.79;nan;99616.72;4978049;28;20216;-81
2023/09/28 04:12:46;;;;;;;6.03;3.95;;;;;;;14.72;nan;99623.47;4973815;28;20711;-78
2023/09/28 04:15:11;;;;;;;9.40;4.80;;;;;;;14.69;nan;99628.16;4973589;28;20299;-78
2023/09/28 04:17:37;;;;;;;5.40;4.13;;;;;;;14.66;nan;99626.59;4974006;28;20561;-78
2023/09/28 04:20:07;;;;;;;6.60;4.30;;;;;;;14.66;nan;99623.94;4972679;28;20215;-78
2023/09/28 04:22:33;;;;;;;5.18;4.68;;;;;;;14.64;nan;99617.97;4970670;28;20290;-78
2023/09/28 04:24:58;;;;;;;7.30;4.30;;;;;;;14.62;nan;99617.25;4973560;28;20668;-78
2023/09/28 04:27:24;;;;;;;4.60;4.20;;;;;;;14.57;nan;99614.97;4973898;28;20200;-78
2023/09/28 04:29:49;;;;;;;4.83;4.27;;;;;;;14.54;nan;99617.84;4972546;28;20218;-78
2023/09/28 04:32:14;;;;;;;9.53;4.80;;;;;;;14.52;nan;99621.56;4973317;28;20656;-78
2023/09/28 04:34:40;;;;;;;5.03;4.43;;;;;;;14.46;nan;99617.59;4971797;28;20452;-78
2023/09/28 04:37:05;;;;;;;6.20;5.60;;;;;;;14.42;nan;99621.47;4972207;28;20566;-78
2023/09/28 04:39:31;;;;;;;5.43;4.30;;;;;;;14.41;nan;99630.31;4969358;28;20222;-78
2023/09/28 04:41:58;;;;;;;5.27;4.77;;;;;;;14.41;nan;99625.03;4968481;28;20278;-78
2023/09/28 04:44:23;;;;;;;4.60;4.10;;;;;;;14.41;nan;99624.22;4973078;28;20219;-78
2023/09/28 04:46:50;;;;;;;4.43;4.03;;;;;;;14.38;nan;99628.78;4975800;28;20697;-78
2023/09/28 04:49:19;;;;;;;6.07;4.63;;;;;;;14.36;nan;99638.63;4972532;28;20475;-78
2023/09/28 04:51:45;;;;;;;7.05;5.00;;;;;;;14.35;nan;99651.97;4970460;28;20251;-78
2023/09/28 04:54:10;;;;;;;5.13;4.53;;;;;;;14.29;nan;99663.84;4973102;28;20318;-78
2023/09/28 04:56:36;;;;;;;5.70;4.17;;;;;;;14.22;nan;99665.28;4971424;28;20564;-78
2023/09/28 04:59:02;;;;;;;4.77;4.07;;;;;;;14.17;nan;99675.38;4972800;28;20219;-78
2023/09/28 05:01:28;;;;;;;6.65;4.72;;;;;;;14.14;nan;99678.25;4972354;28;20231;-78
2023/09/28 05:03:54;;;;;;;6.90;5.50;;;;;;;14.07;nan;99687.59;4973650;28;20208;-77
2023/09/28 05:06:20;;;;;;;6.30;5.00;;;;;;;14.04;nan;99682.56;4973687;28;20201;-78
2023/09/28 05:08:45;;;;;;;5.40;4.60;;;;;;;14.01;nan;99688.06;4970802;28;20774;-78
2023/09/28 05:11:10;;;;;;;5.97;4.70;;;;;;;14.00;nan;99686.41;4968301;28;20207;-78
2023/09/28 05:13:36;;;;;;;8.03;5.10;;;;;;;14.03;nan;99675.59;4973190;28;20227;-78
2023/09/28 05:16:02;;;;;;;5.60;5.00;;;;;;;14.08;nan;99676.09;4977796;28;20632;-79
2023/09/28 05:18:27;;;;;;;7.87;4.03;;;;;;;14.13;nan;99679.22;4976533;28;20223;-79
2023/09/28 05:20:52;;;;;;;6.30;4.80;;;;;;;14.17;nan;99676.19;4973242;28;20819;-78
2023/09/28 05:23:19;;;;;;;6.10;3.80;;;;;;;14.23;nan;99679.31;4975936;28;20206;-78
2023/09/28 05:25:44;;;;;;;6.63;4.55;;;;;;;14.30;nan;99685.81;4975761;28;20207;-78
2023/09/28 05:28:10;;;;;;;10.73;5.63;;;;;;;14.35;nan;99687.16;4973405;28;20219;-78
2023/09/28 05:30:36;;;;;;;6.17;4.67;;;;;;;14.42;nan;99692.81;4973292;28;20307;-78
2023/09/28 05:33:01;;;;;;;7.03;4.60;;;;;;;14.46;nan;99688.94;4975418;28;20290;-78
2023/09/28 05:35:27;;;;;;;5.80;5.20;;;;;;;14.49;nan;99685.22;4976538;28;20282;-78
2023/09/28 05:37:52;;;;;;;6.30;5.17;;;;;;;14.52;nan;99680.56;4976454;28;20214;-78
2023/09/28 05:40:18;;;;;;;6.23;5.23;;;;;;;14.57;nan;99682.84;4973509;28;20215;-78
2023/09/28 05:42:43;;;;;;;5.53;4.93;;;;;;;14.59;nan;99675.66;4975506;28;20226;-78
2023/09/28 05:45:09;;;;;;;6.60;4.83;;;;;;;14.62;nan;99685.16;4977062;28;20192;-78
2023/09/28 05:47:38;;;;;;;8.40;5.47;;;;;;;14.65;nan;99692.81;4973540;28;20203;-78
2023/09/28 05:50:04;;;;;;;7.10;4.60;;;;;;;14.68;nan;99696.06;4975977;28;20207;-78
2023/09/28 05:52:30;;;;;;;8.30;4.90;;;;;;;14.73;nan;99707.13;4974704;28;20206;-78
2023/09/28 05:54:55;;;;;;;7.23;5.33;;;;;;;14.77;nan;99705.06;4976117;28;20204;-78
2023/09/28 05:57:22;;;;;;;10.63;6.30;;;;;;;14.80;nan;99718.06;4975375;28;20458;-78
2023/09/28 05:59:48;;;;;;;11.40;5.38;;;;;;;14.83;nan;99717.81;4974273;28;20230;-78
2023/09/28 06:02:14;;;;;;;6.60;5.18;;;;;;;14.83;nan;99731.03;4975175;28;20696;-78
2023/09/28 06:04:41;;;;;;;5.70;5.20;;;;;;;14.80;nan;99728.63;4974887;28;20291;-78
2023/09/28 06:07:07;;;;;;;6.90;5.40;;;;;;;14.76;nan;99724.53;4975995;28;20539;-78
2023/09/28 06:09:32;;;;;;;7.00;5.03;;;;;;;14.74;nan;99724.69;4974601;28;20636;-78
2023/09/28 06:11:58;;;;;;;7.30;4.00;;;;;;;14.73;nan;99725.63;4975276;28;21127;-78
2023/09/28 06:14:24;;;;;;;4.73;4.13;;;;;;;14.73;nan;99735.38;4973664;28;20207;-78
2023/09/28 06:16:49;;;;;;;4.57;3.80;;;;;;;14.71;nan;99730.19;4974303;28;20451;-78
2023/09/28 06:19:14;;;;;;;5.33;3.23;;;;;;;14.72;nan;99733.69;4975923;28;20237;-78
2023/09/28 06:21:41;;;;;;;7.77;4.40;;;;;;;14.70;nan;99736.44;4974967;28;20221;-78
2023/09/28 06:24:06;;;;;;;6.10;3.72;;;;;;;14.72;nan;99734.53;4976565;28;20612;-78
2023/09/28 06:26:32;;;;;;;7.70;4.50;;;;;;;14.75;nan;99739.56;4973892;28;20549;-78
2023/09/28 06:28:58;;;;;;;10.73;4.40;;;;;;;14.75;nan;99739.56;4976583;28;20292;-78
2023/09/28 06:31:24;;;;;;;4.53;3.97;;;;;;;14.72;nan;99726.59;4975479;28;20200;-78
2023/09/28 06:33:49;;;;;;;4.93;4.00;;;;;;;14.76;nan;99733.31;4990112;28;20200;-78
2023/09/28 06:36:18;;;;;;;4.33;3.57;;;;;;;14.75;nan;99739.56;4975240;28;20195;-78
2023/09/28 06:38:44;;;;;;;7.57;4.00;;;;;;;14.75;nan;99731.63;4977392;28;20207;-78
2023/09/28 06:41:10;;;;;;;4.38;3.83;;;;;;;14.75;nan;99738.72;4975934;28;20239;-78
2023/09/28 06:43:35;;;;;;;6.07;3.53;;;;;;;14.75;nan;99739.56;4974161;28;20695;-78
2023/09/28 06:46:01;;;;;;;5.37;4.27;;;;;;;14.76;nan;99746.53;4973062;28;20535;-78
2023/09/28 06:48:28;;;;;;;6.05;4.47;;;;;;;14.77;nan;99750.88;4973611;28;20203;-78
2023/09/28 06:50:58;;;;;;;7.35;4.20;;;;;;;14.81;nan;99749.66;4975401;28;20335;-78
2023/09/28 06:53:24;;;;;;;5.88;3.80;;;;;;;14.86;nan;99745.81;4974671;28;20412;-78
2023/09/28 06:55:52;;;;;;;4.45;3.88;;;;;;;14.93;nan;99737.28;4971067;28;20200;-78
2023/09/28 06:58:18;;;;;;;6.03;4.95;;;;;;;15.01;nan;99739.28;4976950;28;20266;-78
2023/09/28 07:00:44;;;;;;;6.22;4.18;;;;;;;15.09;nan;99734.22;4973119;28;20303;-78
2023/09/28 07:03:10;;;;;;;5.30;4.80;;;;;;;15.19;nan;99732.53;4972502;28;20691;-78
2023/09/28 07:05:36;;;;;;;6.93;5.07;;;;;;;15.32;nan;99739.47;4974504;28;20388;-78
2023/09/28 07:08:05;;;;;;;8.55;5.45;;;;;;;15.42;nan;99735.97;4975443;28;20901;-78
2023/09/28 07:10:36;;;;;;;6.43;3.97;;;;;;;15.51;nan;99731.72;4971888;28;20199;-78
2023/09/28 07:13:04;;;;;;;7.45;5.00;;;;;;;15.64;nan;99744.78;4972881;28;21723;-79
2023/09/28 07:15:30;;;;;;;5.78;4.40;;;;;;;15.77;nan;99745.50;4975637;28;20693;-78
2023/09/28 07:17:56;;;;;;;6.47;4.68;;;;;;;15.89;nan;99741.81;4974277;28;20477;-78
2023/09/28 07:20:22;;;;;;;7.20;4.30;;;;;;;16.02;nan;99741.63;4973595;28;20352;-78
2023/09/28 07:22:49;;;;;;;13.18;4.22;;;;;;;16.14;nan;99748.50;4971156;28;20204;-78
2023/09/28 07:25:15;;;;;;;6.78;4.05;;;;;;;16.28;nan;99752.69;4973411;28;20457;-79
2023/09/28 07:27:42;;;;;;;5.03;4.22;;;;;;;16.41;nan;99744.50;4975166;28;20204;-78
2023/09/28 07:30:08;;;;;;;5.60;4.53;;;;;;;16.54;nan;99742.47;4971133;28;20268;-78
2023/09/28 07:32:34;;;;;;;6.00;4.20;;;;;;;16.67;nan;99744.91;4972872;28;20201;-79
2023/09/28 07:35:01;;;;;;;6.53;4.80;;;;;;;16.81;nan;99746.38;4974699;28;20453;-78
2023/09/28 07:37:27;;;;;;;6.60;4.82;;;;;;;16.96;nan;99747.69;4975095;28;20196;-78
2023/09/28 07:39:54;;;;;;;5.63;3.87;;;;;;;17.15;nan;99738.13;4973710;28;20223;-78
2023/09/28 07:42:19;;;;;;;4.95;3.28;;;;;;;17.34;nan;99740.78;4976121;28;20212;-79
2023/09/28 07:44:47;;;;;;;6.53;4.63;;;;;;;17.51;nan;99726.00;4982889;28;20579;-79
2023/09/28 07:47:13;;;;;;;5.57;3.20;;;;;;;17.68;nan;99732.41;4970835;28;20991;-79
2023/09/28 07:49:40;;;;;;;4.90;3.20;;;;;;;17.90;nan;99737.50;4974129;28;20457;-79
2023/09/28 07:52:08;;;;;;;3.63;3.30;;;;;;;18.56;nan;99744.59;4976010;28;20502;-79
2023/09/28 07:54:36;;;;;;;5.67;4.00;;;;;;;19.64;nan;99731.53;4974759;28;20604;-79
2023/09/28 07:57:05;;;;;;;6.13;3.37;;;;;;;20.82;nan;99727.53;4973838;28;20713;-79
2023/09/28 07:59:34;;;;;;;8.83;4.17;;;;;;;22.01;nan;99713.06;4973140;28;20482;-79
2023/09/28 08:02:06;;;;;;;3.73;3.30;;;;;;;22.98;nan;99713.84;4973714;28;20468;-80
2023/09/28 08:04:31;;;;;;;3.63;3.00;;;;;;;23.94;nan;99704.44;4975139;28;20438;-80
2023/09/28 08:06:57;;;;;;;2.97;2.77;;;;;;;24.81;nan;99705.72;4975066;28;20452;-80
2023/09/28 08:09:23;;;;;;;3.70;2.20;;;;;;;25.21;nan;99700.84;4974777;28;20549;-80
2023/09/28 08:11:49;;;;;;;4.13;3.53;;;;;;;25.45;nan;99702.34;4973648;28;20215;-80
2023/09/28 08:14:18;;;;;;;7.77;3.30;;;;;;;25.75;nan;99714.63;4974434;28;20451;-80
2023/09/28 08:16:44;;;;;;;4.10;3.27;;;;;;;26.09;nan;99714.94;4972176;28;20429;-80
2023/09/28 08:19:13;;;;;;;3.07;2.47;;;;;;;26.51;nan;99713.97;4976288;28;20492;-80
2023/09/28 08:21:39;;;;;;;5.97;3.50;;;;;;;26.93;nan;99712.13;4975519;28;20476;-80
2023/09/28 08:24:06;;;;;;;4.20;3.10;;;;;;;27.40;nan;99712.28;4971812;28;20517;-80
2023/09/28 08:26:32;;;;;;;5.93;3.70;;;;;;;27.97;nan;99709.03;4976395;28;20516;-80
2023/09/28 08:29:00;;;;;;;5.60;3.60;;;;;;;28.56;nan;99701.91;4974616;28;20416;-80
2023/09/28 08:31:29;;;;;;;4.10;3.67;;;;;;;28.95;nan;99704.66;4975909;28;20842;-80
2023/09/28 08:34:03;;;;;;;10.30;4.10;;;;;;;29.26;nan;99712.03;4972604;28;20426;-80
2023/09/28 08:36:29;;;;;;;3.60;3.00;;;;;;;29.46;nan;99707.34;4975920;28;20820;-80
2023/09/28 08:38:55;;;;;;;6.27;3.50;;;;;;;29.61;nan;99717.00;4976271;28;21129;-80
2023/09/28 08:41:36;;;;;;;10.80;3.87;;;;;;;29.78;nan;99713.56;4973098;28;20997;-78
2023/09/28 08:44:06;;;;;;;3.43;2.93;;;;;;;29.94;nan;99712.19;4970540;28;21631;-79
2023/09/28 08:46:38;;;;;;;4.47;3.30;;;;;;;30.06;nan;99712.31;4973035;28;20654;-79
2023/09/28 08:49:05;;;;;;;8.67;4.30;;;;;;;30.03;nan;99715.47;4973335;28;20462;-79
2023/09/28 08:51:32;;;;;;;7.83;4.43;;;;;;;29.75;nan;99724.84;4973681;28;20579;-79
2023/09/28 08:54:04;;;;;;;5.00;3.70;;;;;;;29.43;nan;99726.69;4974486;28;20435;-81
2023/09/28 08:56:33;;;;;;;5.13;3.20;;;;;;;29.22;nan;99722.47;4976408;28;20442;-79
2023/09/28 08:58:59;;;;;;;6.10;3.50;;;;;;;29.04;nan;99717.75;4977957;28;20958;-81
2023/09/28 09:01:26;;;;;;;6.20;3.93;;;;;;;28.98;nan;99718.59;4979411;28;20493;-79
2023/09/28 09:03:52;;;;;;;4.60;3.77;;;;;;;29.05;nan;99718.59;4976099;28;20979;-79
2023/09/28 09:06:20;;;;;;;4.27;3.80;;;;;;;29.08;nan;99719.00;4977266;28;20445;-79
2023/09/28 09:08:49;;;;;;;4.33;3.37;;;;;;;28.91;nan;99720.50;4975110;28;20204;-79
2023/09/28 09:11:16;;;;;;;6.37;3.83;;;;;;;28.74;nan;99722.84;4972720;28;20433;-80
2023/09/28 09:13:53;;;;;;;4.97;3.10;;;;;;;28.57;nan;99724.34;4977708;28;20881;-79
2023/09/28 09:16:24;;;;;;;4.20;2.83;;;;;;;28.31;nan;99723.34;4976715;28;20491;-79
2023/09/28 09:18:51;;;;;;;4.90;3.10;;;;;;;28.09;nan;99716.53;4974143;28;20850;-79
2023/09/28 09:21:18;;;;;;;4.57;3.00;;;;;;;27.92;nan;99716.94;4977290;28;20904;-79
2023/09/28 09:23:59;;;;;;;4.10;3.27;;;;;;;27.54;nan;99722.06;4975596;28;20458;-79
2023/09/28 09:26:24;;;;;;;5.03;2.87;;;;;;;27.02;nan;99719.00;4975959;28;20442;-80
2023/09/28 09:28:50;;;;;;;4.03;3.43;;;;;;;26.65;nan;99707.66;4979554;28;20443;-79
2023/09/28 09:31:15;;;;;;;4.73;4.23;;;;;;;26.55;nan;99703.66;4978349;28;20265;-79
2023/09/28 09:33:43;;;;;;;7.57;4.50;;;;;;;26.51;nan;99697.81;4977774;28;20214;-80
2023/09/28 09:36:08;;;;;;;6.87;4.57;;;;;;;26.56;nan;99703.44;4978598;28;20690;-79
2023/09/28 09:38:34;;;;;;;4.07;3.37;;;;;;;26.59;nan;99697.66;4978002;28;20537;-79
2023/09/28 09:41:01;;;;;;;4.40;3.63;;;;;;;26.56;nan;99697.22;4977825;28;20229;-79
2023/09/28 09:43:34;;;;;;;3.83;3.40;;;;;;;26.52;nan;99696.81;4973890;28;20582;-79
2023/09/28 09:46:06;;;;;;;9.37;3.30;;;;;;;26.62;nan;99693.72;4976957;28;20441;-80
2023/09/28 09:48:43;;;;;;;3.10;2.80;;;;;;;26.73;nan;99698.53;4979192;28;20457;-80
2023/09/28 09:51:12;;;;;;;3.33;3.03;;;;;;;26.82;nan;99693.84;4974276;28;20460;-79
2023/09/28 09:53:42;;;;;;;5.00;2.97;;;;;;;26.91;nan;99698.00;4975723;28;20924;-80
2023/09/28 09:56:09;;;;;;;3.83;3.40;;;;;;;27.05;nan;99696.19;4977512;28;20453;-79
2023/09/28 09:58:41;;;;;;;3.20;2.90;;;;;;;27.19;nan;99689.00;4975902;28;20609;-79
2023/09/28 10:01:14;;;;;;;7.73;3.77;;;;;;;27.30;nan;99686.56;4978187;28;20457;-81
2023/09/28 10:03:50;;;;;;;3.43;2.90;;;;;;;27.35;nan;99689.47;4978313;28;20832;-80
2023/09/28 10:06:20;;;;;;;5.17;2.60;;;;;;;27.40;nan;99688.00;4978654;28;20922;-80
2023/09/28 10:08:49;;;;;;;6.47;3.60;;;;;;;27.46;nan;99685.31;4978763;28;20457;-79
2023/09/28 10:13:50;;;;;;;5.70;3.40;;;;;;;27.62;nan;99683.25;4927373;28;20507;-79
2023/09/28 10:16:17;;;;;;;4.53;2.83;;;;;;;27.68;nan;99682.41;4935725;28;21030;-79
2023/09/28 10:18:47;;;;;;;6.70;3.13;;;;;;;27.77;nan;99683.91;4941209;28;20291;-79
2023/09/28 10:21:14;;;;;;;4.77;3.70;;;;;;;27.82;nan;99686.00;4932423;29;20790;-79
2023/09/28 10:23:43;;;;;;;3.90;2.77;;;;;;;27.91;nan;99682.88;4944775;28;20459;-79
2023/09/28 10:26:16;;;;;;;3.70;3.23;;;;;;;27.91;nan;99685.56;4943922;28;20441;-79
2023/09/28 10:29:01;;;;;;;5.20;3.90;;;;;;;27.94;nan;99682.44;4940989;28;20907;-79
2023/09/28 10:31:36;;;;;;;4.70;3.13;;;;;;;27.94;nan;99670.81;4942317;28;20778;-79
2023/09/28 10:34:04;;;;;;;4.60;3.60;;;;;;;27.94;nan;99681.63;4941447;28;20444;-79
2023/09/28 10:36:30;;;;;;;3.23;2.70;;;;;;;28.01;nan;99677.88;4943130;28;20445;-79
2023/09/28 10:39:13;;;;;;;8.43;3.20;;;;;;;28.08;nan;99682.44;4942805;28;20456;-78
2023/09/28 10:41:39;;;;;;;4.23;2.90;;;;;;;28.08;nan;99685.13;4938380;28;20496;-79
2023/09/28 10:44:13;;;;;;;4.40;3.30;;;;;;;28.05;nan;99677.47;4938143;28;20953;-79
2023/09/28 10:46:41;;;;;;;4.40;3.57;;;;;;;28.04;nan;99682.03;4925305;28;20464;-78
2023/09/28 10:49:07;;;;;;;5.20;3.50;;;;;;;28.03;nan;99685.78;4943738;28;20483;-80
2023/09/28 10:51:32;;;;;;;4.43;3.10;;;;;;;28.07;nan;99686.19;4939314;28;20973;-79
2023/09/28 10:53:59;;;;;;;6.53;4.23;;;;;;;28.09;nan;99684.13;4943083;28;20197;-79
2023/09/28 10:56:25;;;;;;;5.60;3.17;;;;;;;28.01;nan;99691.38;4942035;28;20205;-80
2023/09/28 10:58:50;;;;;;;5.67;3.07;;;;;;;27.90;nan;99691.19;4942553;28;20444;-79
2023/09/28 11:01:16;;;;;;;5.70;3.53;;;;;;;27.80;nan;99691.59;4941734;28;20209;-80
2023/09/28 11:03:42;;;;;;;7.23;4.07;;;;;;;27.72;nan;99689.06;4944228;28;20198;-80
2023/09/28 11:06:09;;;;;;;6.70;3.10;;;;;;;27.65;nan;99699.84;4938787;28;20464;-78
2023/09/28 11:08:36;;;;;;;4.10;2.87;;;;;;;27.59;nan;99695.28;4939476;28;20821;-80
2023/09/28 11:11:03;;;;;;;5.00;3.60;;;;;;;27.42;nan;99689.47;4942419;28;20997;-79
2023/09/28 11:13:29;;;;;;;3.57;2.97;;;;;;;27.32;nan;99684.47;4938330;28;20984;-79
2023/09/28 11:15:54;;;;;;;5.00;3.57;;;;;;;27.30;nan;99680.31;4939042;28;20554;-78
2023/09/28 11:18:21;;;;;;;3.90;2.60;;;;;;;27.24;nan;99683.81;4939445;28;20528;-79
2023/09/28 11:20:47;;;;;;;3.23;2.73;;;;;;;27.11;nan;99693.53;4940927;28;20294;-79
2023/09/28 11:23:12;;;;;;;3.30;2.80;;;;;;;27.07;nan;99686.03;4942553;28;20464;-79
2023/09/28 11:25:44;;;;;;;4.17;2.90;;;;;;;27.02;nan;99678.56;4940248;28;20205;-79
2023/09/28 11:28:10;;;;;;;3.53;3.17;;;;;;;26.98;nan;99685.41;4940694;28;20197;-79
2023/09/28 11:30:38;;;;;;;4.13;3.37;;;;;;;26.95;nan;99675.03;4942707;28;20543;-79
2023/09/28 11:33:08;;;;;;;3.57;3.10;;;;;;;26.89;nan;99682.03;4942969;28;20464;-79
2023/09/28 11:35:34;;;;;;;5.27;2.87;;;;;;;26.95;nan;99672.34;4939960;28;20766;-79
2023/09/28 11:38:09;;;;;;;5.30;3.50;;;;;;;27.00;nan;99659.03;4938500;28;20462;-78
2023/09/28 11:40:36;;;;;;;2.87;2.57;;;;;;;27.02;nan;99670.47;4940733;28;20480;-78
2023/09/28 11:43:02;;;;;;;4.57;3.20;;;;;;;27.00;nan;99663.63;4942403;28;20488;-79
2023/09/28 11:45:33;;;;;;;5.07;3.00;;;;;;;26.91;nan;99658.41;4939392;28;21013;-79
2023/09/28 11:48:05;;;;;;;4.33;3.30;;;;;;;26.88;nan;99663.38;4940170;28;20197;-79
2023/09/28 11:50:32;;;;;;;6.27;3.20;;;;;;;26.92;nan;99656.53;4940319;28;20436;-80